createdAt,value
2023-05-24T00:01:07.588Z,14.60
2023-05-24T00:03:35.328Z,13.88
2023-05-24T00:06:02.732Z,13.23
2023-05-24T00:08:29.978Z,15.85
2023-05-24T00:10:57.010Z,13.55
2023-05-24T00:13:24.040Z,14.40
2023-05-24T00:15:51.313Z,13.45
2023-05-24T00:18:18.789Z,14.13
2023-05-24T00:20:46.424Z,14.32
2023-05-24T00:23:13.691Z,14.57
2023-05-24T00:25:40.746Z,13.48
2023-05-24T00:28:08.062Z,14.88
2023-05-24T00:30:35.640Z,13.85
2023-05-24T00:33:02.976Z,13.65
2023-05-24T00:35:29.968Z,13.10
2023-05-24T00:37:57.337Z,13.40
2023-05-24T00:40:24.427Z,13.30
2023-05-24T00:42:51.532Z,12.73
2023-05-24T00:45:18.935Z,12.35
2023-05-24T00:47:48.050Z,13.32
2023-05-24T00:50:17.223Z,12.43
2023-05-24T00:52:45.233Z,12.93
2023-05-24T00:55:13.117Z,12.43
2023-05-24T00:57:41.137Z,12.32
2023-05-24T01:00:09.707Z,11.80
2023-05-24T01:02:38.189Z,11.73
2023-05-24T01:05:06.419Z,11.38
2023-05-24T01:07:52.677Z,11.27
2023-05-24T01:10:46.894Z,12.00
2023-05-24T01:13:36.827Z,10.98
2023-05-24T01:16:18.115Z,12.20
2023-05-24T01:18:53.768Z,11.07
2023-05-24T01:21:49.546Z,10.68
2023-05-24T01:24:49.138Z,11.57
2023-05-24T01:27:18.350Z,10.90
2023-05-24T01:29:45.932Z,12.65
2023-05-24T01:32:13.091Z,12.75
2023-05-24T01:34:40.011Z,11.50
2023-05-24T01:37:07.260Z,10.60
2023-05-24T01:39:34.410Z,12.63
2023-05-24T01:42:22.486Z,12.57
2023-05-24T01:45:07.504Z,11.75
2023-05-24T01:48:01.171Z,11.70
2023-05-24T01:51:00.472Z,10.68
2023-05-24T01:53:34.991Z,11.20
2023-05-24T01:56:06.967Z,11.38
2023-05-24T01:58:36.599Z,10.57
2023-05-24T02:01:03.911Z,11.35
2023-05-24T02:03:31.913Z,10.75
2023-05-24T02:05:58.953Z,10.20
2023-05-24T02:08:25.920Z,10.48
2023-05-24T02:10:52.999Z,8.85
2023-05-24T02:13:20.502Z,9.13
2023-05-24T02:15:48.080Z,9.02
2023-05-24T02:18:15.138Z,7.85
2023-05-24T02:20:43.783Z,8.93
2023-05-24T02:23:10.937Z,7.20
2023-05-24T02:25:38.032Z,8.20
2023-05-24T02:28:05.125Z,6.97
2023-05-24T02:30:32.382Z,8.15
2023-05-24T02:33:00.786Z,7.55
2023-05-24T02:35:28.127Z,6.95
2023-05-24T02:37:55.310Z,6.75
2023-05-24T02:40:22.348Z,8.00
2023-05-24T02:42:49.469Z,7.15
2023-05-24T02:45:16.455Z,6.80
2023-05-24T02:47:43.551Z,6.28
2023-05-24T02:50:11.284Z,6.53
2023-05-24T02:52:39.792Z,6.30
2023-05-24T02:55:07.483Z,6.30
2023-05-24T02:57:34.457Z,5.70
2023-05-24T03:00:01.567Z,5.40
2023-05-24T03:02:34.189Z,5.07
2023-05-24T03:05:01.451Z,5.57
2023-05-24T03:07:28.341Z,5.30
2023-05-24T03:09:57.995Z,5.07
2023-05-24T03:12:25.021Z,5.60
2023-05-24T03:14:51.926Z,5.65
2023-05-24T03:17:19.165Z,4.47
2023-05-24T03:19:46.066Z,5.10
2023-05-24T03:22:14.423Z,5.50
2023-05-24T03:24:41.397Z,5.25
2023-05-24T03:27:08.774Z,5.40
2023-05-24T03:29:35.752Z,4.68
2023-05-24T03:32:03.480Z,5.15
2023-05-24T03:34:31.532Z,4.70
2023-05-24T03:36:58.650Z,5.00
2023-05-24T03:39:25.696Z,5.03
2023-05-24T03:41:52.811Z,5.72
2023-05-24T03:44:19.826Z,4.78
2023-05-24T03:46:46.718Z,5.32
2023-05-24T03:49:13.632Z,4.85
2023-05-24T03:51:40.685Z,4.90
2023-05-24T03:54:07.742Z,4.47
2023-05-24T03:56:34.802Z,4.60
2023-05-24T03:59:04.257Z,4.50
2023-05-24T04:01:34.666Z,4.68
2023-05-24T04:04:05.657Z,4.38
2023-05-24T04:06:32.732Z,4.97
2023-05-24T04:09:01.249Z,3.88
2023-05-24T04:11:28.699Z,4.80
2023-05-24T04:13:57.292Z,4.53
2023-05-24T04:16:26.601Z,4.50
2023-05-24T04:18:58.069Z,4.25
2023-05-24T04:21:25.128Z,4.70
2023-05-24T04:23:52.096Z,4.18
2023-05-24T04:26:19.219Z,4.03
2023-05-24T04:28:47.236Z,5.30
2023-05-24T04:31:15.752Z,4.97
2023-05-24T04:33:42.960Z,3.80
2023-05-24T04:36:11.681Z,4.22
2023-05-24T04:38:41.154Z,4.28
2023-05-24T04:41:08.181Z,3.30
2023-05-24T04:43:35.586Z,4.40
2023-05-24T04:46:03.104Z,4.38
2023-05-24T04:48:30.339Z,4.60
2023-05-24T04:50:58.553Z,3.65
2023-05-24T04:53:25.862Z,3.63
2023-05-24T04:55:53.479Z,3.50
2023-05-24T04:58:20.811Z,4.50
2023-05-24T05:00:47.953Z,4.22
2023-05-24T05:03:15.459Z,4.05
2023-05-24T05:05:42.391Z,3.72
2023-05-24T05:08:09.850Z,3.85
2023-05-24T05:10:37.176Z,3.58
2023-05-24T05:13:04.795Z,4.47
2023-05-24T05:15:32.788Z,3.97
2023-05-24T05:18:00.439Z,3.70
2023-05-24T05:20:27.933Z,3.88
2023-05-24T05:22:54.882Z,3.17
2023-05-24T05:25:22.209Z,3.47
2023-05-24T05:27:52.210Z,3.45
2023-05-24T05:30:19.436Z,3.83
2023-05-24T05:32:46.581Z,3.85
2023-05-24T05:35:13.721Z,4.07
2023-05-24T05:37:40.758Z,3.75
2023-05-24T05:40:08.273Z,3.70
2023-05-24T05:42:35.331Z,2.92
2023-05-24T05:45:05.967Z,3.55
2023-05-24T05:47:32.987Z,3.20
2023-05-24T05:50:00.180Z,3.88
2023-05-24T05:52:27.238Z,3.47
2023-05-24T05:54:54.529Z,3.47
2023-05-24T05:57:24.445Z,3.33
2023-05-24T05:59:51.691Z,3.03
2023-05-24T06:02:19.353Z,3.25
2023-05-24T06:04:47.538Z,3.15
2023-05-24T06:07:14.547Z,3.50
2023-05-24T06:09:41.745Z,3.10
2023-05-24T06:12:08.944Z,3.10
2023-05-24T06:14:38.495Z,3.53
2023-05-24T06:17:07.002Z,3.78
2023-05-24T06:19:34.043Z,3.88
2023-05-24T06:22:01.499Z,3.33
2023-05-24T06:24:28.778Z,3.28
2023-05-24T06:26:55.996Z,4.18
2023-05-24T06:29:23.827Z,2.45
2023-05-24T06:31:51.305Z,2.78
2023-05-24T06:34:22.493Z,3.42
2023-05-24T06:36:51.845Z,3.65
2023-05-24T06:39:19.259Z,3.38
2023-05-24T06:41:47.638Z,3.53
2023-05-24T06:44:14.992Z,3.20
2023-05-24T06:46:42.622Z,2.88
2023-05-24T06:49:09.873Z,3.03
2023-05-24T06:51:38.421Z,3.35
2023-05-24T06:54:05.896Z,3.85
2023-05-24T06:56:33.211Z,3.50
2023-05-24T06:59:00.584Z,3.67
2023-05-24T07:01:28.511Z,3.42
2023-05-24T07:03:55.971Z,2.90
2023-05-24T07:06:22.875Z,3.38
2023-05-24T07:08:49.835Z,2.95
2023-05-24T07:11:17.174Z,3.03
2023-05-24T07:13:44.079Z,2.78
2023-05-24T07:16:11.909Z,3.47
2023-05-24T07:18:41.550Z,3.25
2023-05-24T07:21:09.135Z,2.83
2023-05-24T07:23:37.318Z,2.78
2023-05-24T07:26:05.428Z,3.08
2023-05-24T07:28:32.843Z,2.88
2023-05-24T07:31:00.210Z,2.78
2023-05-24T07:33:27.496Z,3.17
2023-05-24T07:35:54.865Z,2.55
2023-05-24T07:38:21.982Z,2.92
2023-05-24T07:40:49.074Z,3.28
2023-05-24T07:43:16.305Z,3.00
2023-05-24T07:45:43.882Z,3.08
2023-05-24T07:48:11.263Z,2.80
2023-05-24T07:50:38.989Z,2.65
2023-05-24T07:53:06.410Z,2.83
2023-05-24T07:55:33.846Z,3.00
2023-05-24T07:58:00.832Z,3.38
2023-05-24T08:00:28.178Z,2.53
2023-05-24T08:02:55.562Z,2.38
2023-05-24T08:05:23.044Z,2.75
2023-05-24T08:07:50.275Z,2.42
2023-05-24T08:10:18.652Z,2.13
2023-05-24T08:12:45.781Z,2.33
2023-05-24T08:15:12.990Z,2.15
2023-05-24T08:17:40.134Z,2.28
2023-05-24T08:20:09.858Z,2.65
2023-05-24T08:22:37.744Z,2.95
2023-05-24T08:25:06.446Z,2.45
2023-05-24T08:27:34.018Z,2.50
2023-05-24T08:30:01.284Z,1.70
2023-05-24T08:32:28.428Z,2.20
2023-05-24T08:35:06.836Z,2.20
2023-05-24T08:37:43.654Z,2.45
2023-05-24T08:40:10.936Z,2.20
2023-05-24T08:42:39.922Z,2.65
2023-05-24T08:45:13.552Z,2.35
2023-05-24T08:47:41.574Z,2.33
2023-05-24T08:50:09.829Z,2.03
2023-05-24T08:52:37.708Z,1.70
2023-05-24T08:55:05.849Z,2.17
2023-05-24T08:57:34.972Z,2.20
2023-05-24T09:00:02.269Z,2.10
2023-05-24T09:02:31.299Z,1.23
2023-05-24T09:05:00.266Z,1.48
2023-05-24T09:07:29.407Z,2.00
2023-05-24T09:10:02.433Z,1.40
2023-05-24T09:12:38.660Z,1.55
2023-05-24T09:15:09.048Z,1.27
2023-05-24T09:17:37.946Z,1.85
2023-05-24T09:20:10.270Z,1.48
2023-05-24T09:22:41.156Z,1.55
2023-05-24T09:25:11.542Z,1.85
2023-05-24T09:27:39.366Z,1.80
2023-05-24T09:30:13.015Z,2.13
2023-05-24T09:32:40.420Z,1.60
2023-05-24T09:35:11.225Z,1.85
2023-05-24T09:37:41.580Z,1.52
2023-05-24T09:40:20.318Z,1.20
2023-05-24T09:42:51.900Z,1.38
2023-05-24T09:45:18.957Z,1.23
2023-05-24T09:47:46.116Z,1.42
2023-05-24T09:50:16.698Z,1.27
2023-05-24T09:52:44.375Z,1.38
2023-05-24T09:55:16.521Z,1.33
2023-05-24T09:57:45.652Z,1.35
2023-05-24T10:00:21.767Z,1.48
2023-05-24T10:03:05.437Z,1.35
2023-05-24T10:05:32.607Z,1.48
2023-05-24T10:08:00.823Z,1.60
2023-05-24T10:10:33.041Z,1.50
2023-05-24T10:13:01.814Z,1.50
2023-05-24T10:15:29.838Z,1.00
2023-05-24T10:17:58.360Z,1.30
2023-05-24T10:20:25.922Z,1.58
2023-05-24T10:23:01.889Z,1.45
2023-05-24T10:25:29.994Z,1.20
2023-05-24T10:28:09.244Z,1.35
2023-05-24T10:31:12.712Z,1.35
2023-05-24T10:33:43.545Z,1.42
2023-05-24T10:36:14.419Z,1.58
2023-05-24T10:38:42.129Z,1.20
2023-05-24T10:41:09.733Z,1.20
2023-05-24T10:43:38.244Z,2.05
2023-05-24T10:46:09.170Z,1.70
2023-05-24T10:48:40.001Z,1.58
2023-05-24T10:51:45.662Z,1.60
2023-05-24T10:54:14.438Z,1.48
2023-05-24T10:56:47.442Z,1.15
2023-05-24T10:59:37.504Z,1.55
2023-05-24T11:02:13.528Z,1.83
2023-05-24T11:04:47.223Z,1.52
2023-05-24T11:07:16.094Z,1.58
2023-05-24T11:09:46.678Z,1.80
2023-05-24T11:12:18.810Z,2.05
2023-05-24T11:14:52.727Z,1.27
2023-05-24T11:17:22.821Z,1.83
2023-05-24T11:19:55.382Z,1.55
2023-05-24T11:22:25.560Z,1.48
2023-05-24T11:24:53.534Z,1.77
2023-05-24T11:27:20.687Z,1.50
2023-05-24T11:29:48.614Z,1.65
2023-05-24T11:32:18.634Z,1.25
2023-05-24T11:34:47.936Z,1.40
2023-05-24T11:37:17.727Z,1.40
2023-05-24T11:39:52.734Z,1.55
2023-05-24T11:42:22.520Z,1.40
2023-05-24T11:44:50.552Z,1.75
2023-05-24T11:47:20.813Z,1.48
2023-05-24T11:49:51.766Z,2.35
2023-05-24T11:52:18.741Z,2.10
2023-05-24T11:54:45.915Z,1.33
2023-05-24T11:57:13.508Z,1.50
2023-05-24T11:59:41.989Z,1.67
2023-05-24T12:02:09.200Z,2.13
2023-05-24T12:04:36.437Z,1.50
2023-05-24T12:07:03.678Z,2.00
2023-05-24T12:09:30.850Z,1.50
2023-05-24T12:11:58.696Z,1.50
2023-05-24T12:14:31.450Z,1.60
2023-05-24T12:16:59.275Z,1.60
2023-05-24T12:19:33.701Z,1.63
2023-05-24T12:22:07.757Z,1.52
2023-05-24T12:24:35.543Z,1.35
2023-05-24T12:27:08.186Z,0.93
2023-05-24T12:29:37.672Z,1.55
2023-05-24T12:32:05.143Z,1.35
2023-05-24T12:34:33.079Z,1.40
2023-05-24T12:37:00.634Z,1.42
2023-05-24T12:39:34.412Z,1.52
2023-05-24T12:42:02.117Z,1.23
2023-05-24T12:44:37.802Z,1.10
2023-05-24T12:47:07.805Z,1.55
2023-05-24T12:49:35.408Z,1.40
2023-05-24T12:52:02.479Z,1.33
2023-05-24T12:54:30.091Z,1.42
2023-05-24T12:57:00.568Z,1.35
2023-05-24T12:59:30.623Z,1.38
2023-05-24T13:01:58.105Z,1.85
2023-05-24T13:04:27.096Z,1.65
2023-05-24T13:06:54.479Z,1.73
2023-05-24T13:09:23.449Z,2.33
2023-05-24T13:11:51.453Z,1.95
2023-05-24T13:14:19.841Z,1.80
2023-05-24T13:16:47.277Z,1.83
2023-05-24T13:19:14.389Z,2.10
2023-05-24T13:21:41.735Z,2.10
2023-05-24T13:24:09.034Z,2.15
2023-05-24T13:26:38.115Z,1.83
2023-05-24T13:31:38.803Z,2.20
2023-05-24T13:34:07.464Z,1.98
2023-05-24T13:36:35.534Z,2.08
2023-05-24T13:39:14.803Z,1.85
2023-05-24T13:41:43.320Z,1.90
2023-05-24T13:44:11.052Z,2.22
2023-05-24T13:46:39.031Z,1.95
2023-05-24T13:49:07.434Z,1.92
2023-05-24T13:51:38.124Z,2.15
2023-05-24T13:54:07.819Z,2.45
2023-05-24T13:56:36.083Z,1.80
2023-05-24T13:59:04.803Z,2.15
2023-05-24T14:01:33.586Z,2.20
2023-05-24T14:04:02.124Z,2.20
2023-05-24T14:06:29.289Z,2.13
2023-05-24T14:08:56.557Z,2.38
2023-05-24T14:11:24.949Z,2.42
2023-05-24T14:16:22.717Z,2.83
2023-05-24T14:18:51.745Z,2.28
2023-05-24T14:21:21.874Z,2.55
2023-05-24T14:23:49.857Z,2.55
2023-05-24T14:26:18.322Z,2.60
2023-05-24T14:28:45.773Z,3.13
2023-05-24T14:31:12.854Z,2.55
2023-05-24T14:33:40.138Z,3.08
2023-05-24T14:36:07.892Z,2.80
2023-05-24T14:38:34.887Z,2.88
2023-05-24T14:41:02.493Z,3.20
2023-05-24T14:43:29.736Z,3.03
2023-05-24T14:45:56.847Z,2.83
2023-05-24T14:48:23.831Z,2.80
2023-05-24T14:50:51.157Z,2.72
2023-05-24T14:53:18.509Z,3.15
2023-05-24T14:55:45.723Z,3.20
2023-05-24T14:58:13.127Z,3.78
2023-05-24T15:00:42.037Z,2.50
2023-05-24T15:03:11.515Z,3.38
2023-05-24T15:05:39.961Z,2.83
2023-05-24T15:08:08.323Z,3.10
2023-05-24T15:10:35.531Z,3.60
2023-05-24T15:13:05.864Z,3.85
2023-05-24T15:15:32.774Z,2.88
2023-05-24T15:18:04.319Z,3.50
2023-05-24T15:20:35.691Z,3.67
2023-05-24T15:23:04.516Z,3.53
2023-05-24T15:25:31.574Z,2.90
2023-05-24T15:27:58.654Z,3.05
2023-05-24T15:30:25.871Z,3.33
2023-05-24T15:32:53.145Z,3.13
2023-05-24T15:35:20.597Z,3.47
2023-05-24T15:37:47.686Z,3.88
2023-05-24T15:40:15.214Z,2.88
2023-05-24T15:42:42.568Z,3.00
2023-05-24T15:45:10.762Z,2.80
2023-05-24T15:47:40.515Z,3.70
2023-05-24T15:50:09.156Z,3.20
2023-05-24T15:52:36.653Z,3.47
2023-05-24T15:55:04.939Z,3.28
2023-05-24T15:57:32.332Z,3.30
2023-05-24T16:00:02.576Z,3.58
2023-05-24T16:02:30.785Z,2.88
2023-05-24T16:04:58.002Z,3.47
2023-05-24T16:07:24.992Z,3.45
2023-05-24T16:09:52.307Z,2.65
2023-05-24T16:12:19.330Z,3.17
2023-05-24T16:14:46.626Z,2.75
2023-05-24T16:17:15.262Z,2.95
2023-05-24T16:19:42.416Z,3.15
2023-05-24T16:22:09.665Z,3.35
2023-05-24T16:24:37.193Z,3.05
2023-05-24T16:27:04.526Z,3.00
2023-05-24T16:29:31.793Z,3.22
2023-05-24T16:31:58.850Z,2.90
2023-05-24T16:34:26.035Z,2.92
2023-05-24T16:36:52.966Z,3.55
2023-05-24T16:39:19.885Z,2.80
2023-05-24T16:41:47.704Z,2.90
2023-05-24T16:44:18.049Z,2.72
2023-05-24T16:46:46.811Z,2.63
2023-05-24T16:49:14.176Z,2.13
2023-05-24T16:51:41.200Z,2.15
2023-05-24T16:54:09.437Z,2.63
2023-05-24T16:56:38.305Z,2.13
2023-05-24T16:59:05.766Z,2.30
2023-05-24T17:01:32.966Z,2.10
2023-05-24T17:04:00.559Z,2.50
2023-05-24T17:06:27.711Z,2.60
2023-05-24T17:08:54.711Z,2.80
2023-05-24T17:11:23.143Z,3.53
2023-05-24T17:13:51.464Z,2.70
2023-05-24T17:16:18.915Z,2.50
2023-05-24T17:18:46.485Z,2.70
2023-05-24T17:21:13.556Z,2.28
2023-05-24T17:23:40.575Z,2.97
2023-05-24T17:26:11.545Z,2.20
2023-05-24T17:28:39.141Z,3.00
2023-05-24T17:31:09.552Z,2.67
2023-05-24T17:33:36.562Z,2.13
2023-05-24T17:36:04.534Z,2.58
2023-05-24T17:38:34.442Z,2.90
2023-05-24T17:41:01.498Z,3.60
2023-05-24T17:43:29.406Z,2.70
2023-05-24T17:46:03.993Z,2.50
2023-05-24T17:48:36.662Z,2.92
2023-05-24T17:51:10.704Z,2.72
2023-05-24T17:53:38.980Z,3.20
2023-05-24T17:56:07.517Z,2.83
2023-05-24T17:58:37.778Z,2.92
2023-05-24T18:01:07.504Z,3.38
2023-05-24T18:03:39.218Z,3.15
2023-05-24T18:06:07.874Z,3.05
2023-05-24T18:08:38.316Z,2.85
2023-05-24T18:11:09.838Z,2.80
2023-05-24T18:13:42.072Z,3.17
2023-05-24T18:16:11.704Z,3.08
2023-05-24T18:18:39.454Z,3.15
2023-05-24T18:21:09.678Z,3.10
2023-05-24T18:23:39.909Z,3.00
2023-05-24T18:26:12.090Z,3.85
2023-05-24T18:28:39.748Z,3.45
2023-05-24T18:31:10.849Z,3.33
2023-05-24T18:33:38.368Z,3.10
2023-05-24T18:36:05.917Z,2.90
2023-05-24T18:38:37.618Z,3.40
2023-05-24T18:41:06.537Z,3.28
2023-05-24T18:43:34.139Z,2.88
2023-05-24T18:46:01.789Z,3.60
2023-05-24T18:48:28.925Z,3.90
2023-05-24T18:50:55.987Z,3.63
2023-05-24T18:53:23.152Z,3.03
2023-05-24T18:55:50.246Z,3.47
2023-05-24T18:58:17.354Z,2.97
2023-05-24T19:00:44.450Z,3.00
2023-05-24T19:03:12.233Z,3.33
2023-05-24T19:05:41.624Z,3.45
2023-05-24T19:08:11.290Z,2.63
2023-05-24T19:10:38.426Z,3.55
2023-05-24T19:13:07.031Z,3.20
2023-05-24T19:15:35.879Z,3.38
2023-05-24T19:18:03.497Z,3.40
2023-05-24T19:20:30.948Z,3.13
2023-05-24T19:22:57.972Z,3.50
2023-05-24T19:25:25.070Z,3.33
2023-05-24T19:27:59.268Z,3.42
2023-05-24T19:30:27.691Z,3.60
2023-05-24T19:32:54.762Z,3.30
2023-05-24T19:35:21.936Z,3.35
2023-05-24T19:37:49.129Z,3.40
2023-05-24T19:40:16.315Z,3.00
2023-05-24T19:42:43.752Z,2.75
2023-05-24T19:45:13.808Z,3.88
2023-05-24T19:47:41.165Z,3.22
2023-05-24T19:50:08.894Z,3.83
2023-05-24T19:52:35.979Z,3.70
2023-05-24T19:55:03.308Z,3.08
2023-05-24T19:57:30.406Z,3.50
2023-05-24T19:59:57.489Z,3.25
2023-05-24T20:02:25.035Z,3.88
2023-05-24T20:04:52.021Z,3.55
2023-05-24T20:07:18.980Z,3.40
2023-05-24T20:09:45.972Z,3.58
2023-05-24T20:12:13.137Z,3.47
2023-05-24T20:14:40.113Z,3.50
2023-05-24T20:17:07.209Z,4.00
2023-05-24T20:19:34.187Z,3.83
2023-05-24T20:22:01.261Z,3.35
2023-05-24T20:24:28.276Z,4.10
2023-05-24T20:26:55.673Z,4.32
2023-05-24T20:29:22.659Z,3.58
2023-05-24T20:31:49.745Z,3.88
2023-05-24T20:34:16.829Z,3.53
2023-05-24T20:36:44.108Z,3.50
2023-05-24T20:39:11.622Z,3.30
2023-05-24T20:41:38.638Z,3.88
2023-05-24T20:44:05.666Z,3.85
2023-05-24T20:46:32.972Z,4.00
2023-05-24T20:49:00.415Z,3.85
2023-05-24T20:51:27.347Z,4.07
2023-05-24T20:53:54.611Z,3.40
2023-05-24T20:56:23.699Z,4.53
2023-05-24T20:58:55.810Z,3.90
2023-05-24T21:01:23.296Z,4.03
2023-05-24T21:03:50.865Z,3.63
2023-05-24T21:06:20.775Z,3.95
2023-05-24T21:08:47.676Z,3.33
2023-05-24T21:11:14.623Z,3.25
2023-05-24T21:13:41.560Z,3.72
2023-05-24T21:16:09.142Z,3.63
2023-05-24T21:18:37.519Z,4.53
2023-05-24T21:21:06.762Z,3.85
2023-05-24T21:23:33.806Z,3.63
2023-05-24T21:26:00.763Z,3.55
2023-05-24T21:28:27.815Z,3.58
2023-05-24T21:30:57.102Z,3.97
2023-05-24T21:33:24.230Z,3.33
2023-05-24T21:35:51.496Z,3.63
2023-05-24T21:38:18.760Z,3.72
2023-05-24T21:40:45.738Z,3.28
2023-05-24T21:43:12.873Z,3.50
2023-05-24T21:45:40.208Z,3.03
2023-05-24T21:48:08.134Z,3.47
2023-05-24T21:50:36.072Z,3.25
2023-05-24T21:53:03.478Z,3.40
2023-05-24T21:55:30.696Z,3.90
2023-05-24T21:57:58.113Z,3.80
2023-05-24T22:00:27.056Z,3.35
2023-05-24T22:02:57.526Z,3.72
2023-05-24T22:05:27.504Z,3.25
2023-05-24T22:07:54.892Z,3.53
2023-05-24T22:10:22.377Z,3.88
2023-05-24T22:12:52.292Z,3.65
2023-05-24T22:15:19.583Z,3.95
2023-05-24T22:17:48.546Z,3.47
2023-05-24T22:20:16.091Z,4.15
2023-05-24T22:22:48.888Z,3.60
2023-05-24T22:25:19.551Z,3.60
2023-05-24T22:27:50.793Z,3.95
2023-05-24T22:30:18.190Z,3.92
2023-05-24T22:32:45.277Z,3.92
2023-05-24T22:35:12.206Z,3.60
2023-05-24T22:37:39.193Z,3.50
2023-05-24T22:40:07.903Z,4.32
2023-05-24T22:42:35.055Z,3.63
2023-05-24T22:45:02.259Z,4.45
2023-05-24T22:47:33.407Z,4.35
2023-05-24T22:50:02.425Z,4.13
2023-05-24T22:52:33.929Z,4.13
2023-05-24T22:55:04.201Z,4.00
2023-05-24T22:57:31.816Z,4.53
2023-05-24T22:59:59.139Z,3.60
2023-05-24T23:02:27.693Z,4.10
2023-05-24T23:04:56.547Z,3.75
2023-05-24T23:07:23.520Z,4.50
2023-05-24T23:09:50.883Z,4.32
2023-05-24T23:12:18.577Z,3.92
2023-05-24T23:14:46.571Z,4.15
2023-05-24T23:17:14.179Z,4.00
2023-05-24T23:19:42.922Z,3.85
2023-05-24T23:22:14.333Z,3.75
2023-05-24T23:24:44.920Z,3.58
2023-05-24T23:27:11.938Z,4.47
2023-05-24T23:29:41.913Z,3.92
2023-05-24T23:32:09.771Z,3.92
2023-05-24T23:34:37.990Z,3.58
2023-05-24T23:37:07.240Z,3.70
2023-05-24T23:39:34.618Z,3.58
2023-05-24T23:42:04.697Z,4.43
2023-05-24T23:44:31.700Z,4.13
2023-05-24T23:46:59.118Z,3.88
2023-05-24T23:49:26.473Z,4.00
2023-05-24T23:51:54.047Z,4.47
2023-05-24T23:54:21.158Z,4.80
2023-05-24T23:56:48.748Z,4.10
2023-05-24T23:59:17.593Z,3.13
